createdAt,value
2019-04-28T00:00:11.803Z,6.60
2019-04-28T00:01:11.777Z,6.20
2019-04-28T00:02:11.750Z,6.50
2019-04-28T00:03:11.721Z,7.60
2019-04-28T00:04:11.694Z,7.50
2019-04-28T00:05:11.667Z,6.00
2019-04-28T00:06:11.642Z,5.80
2019-04-28T00:07:11.998Z,6.80
2019-04-28T00:08:11.585Z,6.80
2019-04-28T00:09:11.585Z,7.90
2019-04-28T00:10:11.531Z,6.40
2019-04-28T00:11:11.789Z,6.00
2019-04-28T00:12:11.651Z,8.60
2019-04-28T00:13:11.452Z,9.20
2019-04-28T00:14:11.982Z,8.80
2019-04-28T00:15:11.395Z,10.30
2019-04-28T00:16:11.677Z,6.80
2019-04-28T00:17:11.340Z,10.20
2019-04-28T00:18:11.938Z,6.80
2019-04-28T00:19:11.284Z,6.30
2019-04-28T00:20:12.789Z,6.90
2019-04-28T00:21:11.229Z,16.40
2019-04-28T00:22:11.202Z,7.20
2019-04-28T00:23:11.685Z,6.60
2019-04-28T00:24:11.505Z,7.40
2019-04-28T00:25:11.523Z,8.00
2019-04-28T00:26:11.165Z,7.70
2019-04-28T00:27:11.639Z,9.90
2019-04-28T00:28:11.578Z,8.60
2019-04-28T00:29:11.279Z,10.30
2019-04-28T00:30:11.741Z,8.40
2019-04-28T00:31:11.383Z,10.10
2019-04-28T00:32:11.320Z,8.90
2019-04-28T00:33:11.718Z,9.80
2019-04-28T00:34:11.455Z,8.20
2019-04-28T00:35:11.789Z,8.60
2019-04-28T00:36:11.524Z,9.60
2019-04-28T00:37:11.199Z,10.40
2019-04-28T00:38:11.318Z,11.00
2019-04-28T00:39:11.140Z,10.00
2019-04-28T00:40:11.206Z,8.70
2019-04-28T00:41:11.072Z,12.00
2019-04-28T00:42:11.797Z,9.20
2019-04-28T00:43:10.889Z,9.00
2019-04-28T00:44:11.907Z,13.00
2019-04-28T00:45:11.529Z,10.60
2019-04-28T00:46:11.030Z,11.20
2019-04-28T00:47:11.103Z,11.90
2019-04-28T00:48:10.917Z,10.60
2019-04-28T00:49:11.826Z,10.50
2019-04-28T00:50:11.743Z,11.90
2019-04-28T00:51:11.602Z,14.60
2019-04-28T00:52:11.169Z,12.60
2019-04-28T00:53:11.671Z,12.90
2019-04-28T00:54:12.085Z,12.70
2019-04-28T00:55:11.059Z,14.50
2019-04-28T00:56:12.111Z,16.80
2019-04-28T00:57:11.273Z,15.60
2019-04-28T00:58:10.881Z,14.50
2019-04-28T00:59:11.788Z,14.00
2019-04-28T01:00:11.563Z,14.40
2019-04-28T01:01:11.342Z,18.10
2019-04-28T01:02:11.139Z,16.90
2019-04-28T01:03:11.691Z,18.40
2019-04-28T01:04:11.758Z,20.20
2019-04-28T01:05:11.331Z,16.40
2019-04-28T01:06:11.570Z,18.60
2019-04-28T01:07:11.521Z,18.90
2019-04-28T01:08:10.991Z,20.10
2019-04-28T01:09:11.826Z,23.20
2019-04-28T01:10:11.407Z,21.50
2019-04-28T01:11:11.364Z,19.90
2019-04-28T01:12:11.203Z,24.40
2019-04-28T01:13:11.607Z,21.80
2019-04-28T01:14:11.460Z,24.20
2019-04-28T01:15:10.278Z,24.60
2019-04-28T01:16:09.716Z,27.70
2019-04-28T01:17:09.853Z,25.10
2019-04-28T01:18:10.488Z,24.70
2019-04-28T01:19:10.123Z,27.80
2019-04-28T01:20:09.820Z,29.30
2019-04-28T01:21:10.712Z,26.10
2019-04-28T01:22:10.248Z,27.40
2019-04-28T01:23:10.342Z,25.20
2019-04-28T01:24:09.546Z,27.60
2019-04-28T01:25:10.693Z,26.60
2019-04-28T01:26:09.940Z,26.60
2019-04-28T01:27:10.348Z,24.50
2019-04-28T01:28:09.881Z,25.40
2019-04-28T01:29:09.604Z,23.80
2019-04-28T01:30:11.290Z,27.70
2019-04-28T01:31:09.637Z,32.50
2019-04-28T01:32:10.390Z,31.10
2019-04-28T01:33:09.643Z,31.80
2019-04-28T01:34:10.334Z,29.40
2019-04-28T01:35:09.534Z,30.70
2019-04-28T01:36:10.357Z,30.50
2019-04-28T01:37:09.700Z,28.60
2019-04-28T01:38:09.913Z,27.80
2019-04-28T01:39:10.073Z,27.30
2019-04-28T01:40:09.518Z,28.50
2019-04-28T01:41:09.867Z,33.50
2019-04-28T01:42:10.652Z,31.30
2019-04-28T01:43:09.719Z,33.10
2019-04-28T01:44:10.251Z,36.70
2019-04-28T01:45:10.571Z,36.50
2019-04-28T01:46:10.147Z,29.70
2019-04-28T01:47:10.545Z,35.00
2019-04-28T01:48:10.045Z,32.20
2019-04-28T01:49:09.624Z,40.70
2019-04-28T01:50:10.188Z,36.10
2019-04-28T01:51:09.535Z,37.60
2019-04-28T01:52:10.386Z,37.60
2019-04-28T01:53:09.750Z,39.90
2019-04-28T01:54:09.781Z,36.20
2019-04-28T01:55:10.115Z,33.70
2019-04-28T01:56:10.481Z,36.80
2019-04-28T01:57:10.146Z,41.50
2019-04-28T01:58:09.575Z,30.10
2019-04-28T01:59:10.151Z,30.00
2019-04-28T02:00:20.025Z,31.50
2019-04-28T02:01:10.205Z,30.70
2019-04-28T02:02:10.135Z,34.30
2019-04-28T02:03:10.309Z,34.50
2019-04-28T02:04:10.073Z,28.90
2019-04-28T02:05:09.728Z,31.70
2019-04-28T02:06:10.050Z,31.60
2019-04-28T02:07:08.291Z,32.10
2019-04-28T02:08:09.743Z,32.40
2019-04-28T02:09:09.710Z,31.20
2019-04-28T02:10:10.144Z,29.00
2019-04-28T02:11:09.960Z,31.60
2019-04-28T02:12:08.151Z,31.10
2019-04-28T02:13:09.589Z,32.10
2019-04-28T02:14:09.646Z,32.10
2019-04-28T02:15:08.066Z,29.80
2019-04-28T02:16:09.724Z,33.20
2019-04-28T02:17:08.010Z,32.30
2019-04-28T02:18:09.902Z,33.90
2019-04-28T02:19:07.952Z,37.40
2019-04-28T02:20:07.927Z,34.20
2019-04-28T02:21:09.295Z,31.60
2019-04-28T02:22:07.871Z,34.80
2019-04-28T02:23:09.739Z,33.50
2019-04-28T02:24:09.542Z,34.00
2019-04-28T02:25:07.789Z,33.20
2019-04-28T02:26:09.621Z,31.80
2019-04-28T02:27:07.729Z,32.50
2019-04-28T02:28:09.402Z,33.60
2019-04-28T02:29:07.675Z,32.80
2019-04-28T02:30:10.964Z,36.50
2019-04-28T02:31:07.617Z,38.80
2019-04-28T02:32:10.301Z,40.40
2019-04-28T02:33:07.575Z,39.30
2019-04-28T02:34:07.536Z,37.90
2019-04-28T02:35:10.421Z,36.00
2019-04-28T02:36:08.813Z,37.70
2019-04-28T02:37:07.454Z,38.20
2019-04-28T02:38:07.424Z,39.80
2019-04-28T02:39:07.395Z,41.20
2019-04-28T02:40:07.368Z,41.20
2019-04-28T02:41:07.340Z,42.50
2019-04-28T02:42:07.315Z,43.10
2019-04-28T02:43:07.282Z,40.20
2019-04-28T02:44:07.256Z,41.20
2019-04-28T02:45:07.234Z,39.80
2019-04-28T02:46:07.209Z,40.40
2019-04-28T02:47:07.172Z,39.00
2019-04-28T02:48:07.145Z,43.60
2019-04-28T02:49:07.119Z,41.30
2019-04-28T02:50:07.089Z,45.30
2019-04-28T02:51:07.062Z,41.10
2019-04-28T02:52:07.033Z,39.40
2019-04-28T02:53:07.005Z,39.70
2019-04-28T02:54:06.976Z,40.30
2019-04-28T02:55:06.951Z,40.50
2019-04-28T02:56:06.922Z,42.30
2019-04-28T02:57:06.900Z,45.10
2019-04-28T02:58:06.868Z,39.50
2019-04-28T02:59:06.837Z,38.90
2019-04-28T03:00:06.811Z,38.60
2019-04-28T03:01:18.010Z,38.70
2019-04-28T03:02:06.756Z,35.40
2019-04-28T03:03:06.732Z,39.50
2019-04-28T03:04:06.699Z,42.60
2019-04-28T03:05:06.669Z,41.40
2019-04-28T03:06:06.643Z,38.90
2019-04-28T03:07:06.614Z,41.90
2019-04-28T03:08:06.597Z,47.30
2019-04-28T03:09:06.561Z,43.50
2019-04-28T03:10:06.533Z,43.70
2019-04-28T03:11:06.501Z,42.80
2019-04-28T03:12:06.475Z,38.50
2019-04-28T03:13:06.458Z,35.90
2019-04-28T03:14:06.426Z,40.40
2019-04-28T03:15:06.390Z,41.30
2019-04-28T03:16:06.370Z,40.00
2019-04-28T03:17:06.342Z,41.60
2019-04-28T03:18:06.312Z,40.00
2019-04-28T03:19:06.280Z,42.10
2019-04-28T03:20:06.259Z,46.30
2019-04-28T03:21:06.226Z,46.70
2019-04-28T03:22:06.196Z,43.00
2019-04-28T03:23:09.136Z,51.30
2019-04-28T03:24:06.140Z,44.10
2019-04-28T03:25:06.115Z,46.50
2019-04-28T03:26:06.083Z,44.90
2019-04-28T03:27:06.054Z,46.00
2019-04-28T03:28:06.028Z,44.70
2019-04-28T03:29:06.003Z,42.70
2019-04-28T03:30:05.972Z,39.20
2019-04-28T03:31:34.824Z,44.00
2019-04-28T03:32:28.497Z,39.90
2019-04-28T03:33:12.007Z,39.50
2019-04-28T03:34:05.861Z,39.90
2019-04-28T03:35:05.832Z,39.20
2019-04-28T03:36:08.484Z,42.10
2019-04-28T03:37:05.775Z,47.50
2019-04-28T03:38:05.748Z,43.00
2019-04-28T03:39:05.719Z,44.00
2019-04-28T03:40:05.708Z,48.60
2019-04-28T03:41:05.665Z,44.50
2019-04-28T03:42:05.641Z,45.40
2019-04-28T03:43:05.612Z,44.90
2019-04-28T03:44:05.598Z,46.30
2019-04-28T03:45:05.552Z,41.40
2019-04-28T03:46:05.531Z,43.50
2019-04-28T03:47:05.505Z,47.80
2019-04-28T03:48:05.466Z,45.90
2019-04-28T03:49:05.442Z,45.50
2019-04-28T03:50:05.410Z,42.90
2019-04-28T03:51:05.386Z,52.20
2019-04-28T03:52:05.355Z,48.20
2019-04-28T03:53:05.326Z,45.10
2019-04-28T03:54:05.299Z,46.20
2019-04-28T03:55:05.276Z,47.30
2019-04-28T03:56:05.244Z,46.60
2019-04-28T03:57:05.215Z,44.60
2019-04-28T03:58:05.189Z,50.30
2019-04-28T03:59:05.159Z,46.90
2019-04-28T04:00:05.143Z,44.60
2019-04-28T04:01:05.105Z,48.50
2019-04-28T04:02:05.077Z,47.60
2019-04-28T04:03:05.054Z,50.50
2019-04-28T04:04:05.018Z,54.20
2019-04-28T04:05:04.993Z,52.40
2019-04-28T04:06:04.965Z,50.40
2019-04-28T04:07:04.935Z,49.30
2019-04-28T04:08:04.908Z,53.80
2019-04-28T04:09:04.884Z,51.20
2019-04-28T04:10:04.854Z,52.60
2019-04-28T04:11:04.825Z,53.10
2019-04-28T04:12:04.798Z,50.50
2019-04-28T04:13:04.769Z,50.30
2019-04-28T04:14:04.741Z,53.40
2019-04-28T04:15:04.715Z,63.70
2019-04-28T04:16:04.685Z,58.80
2019-04-28T04:17:04.657Z,53.00
2019-04-28T04:18:04.630Z,51.60
2019-04-28T04:19:04.601Z,51.40
2019-04-28T04:20:04.571Z,52.00
2019-04-28T04:21:04.546Z,51.30
2019-04-28T04:22:04.525Z,50.70
2019-04-28T04:23:04.491Z,52.00
2019-04-28T04:24:04.461Z,49.30
2019-04-28T04:25:04.433Z,51.60
2019-04-28T04:26:04.406Z,48.10
2019-04-28T04:27:04.388Z,46.40
2019-04-28T04:28:04.369Z,41.40
2019-04-28T04:29:04.321Z,51.80
2019-04-28T04:30:04.295Z,44.70
2019-04-28T04:31:04.264Z,52.70
2019-04-28T04:32:15.726Z,51.10
2019-04-28T04:33:04.215Z,50.40
2019-04-28T04:34:04.194Z,49.60
2019-04-28T04:35:04.155Z,44.10
2019-04-28T04:36:04.132Z,49.50
2019-04-28T04:37:04.097Z,51.30
2019-04-28T04:38:04.074Z,50.00
2019-04-28T04:39:04.043Z,43.80
2019-04-28T04:40:04.014Z,46.40
2019-04-28T04:41:03.992Z,50.40
2019-04-28T04:42:03.959Z,41.80
2019-04-28T04:43:03.931Z,48.30
2019-04-28T04:44:03.906Z,45.10
2019-04-28T04:45:03.877Z,51.20
2019-04-28T04:46:03.848Z,48.90
2019-04-28T04:47:03.820Z,47.60
2019-04-28T04:48:03.791Z,47.20
2019-04-28T04:49:03.767Z,47.50
2019-04-28T04:50:03.739Z,48.70
2019-04-28T04:51:03.716Z,42.10
2019-04-28T04:52:03.682Z,42.60
2019-04-28T04:53:03.659Z,47.00
2019-04-28T04:54:03.623Z,45.80
2019-04-28T04:55:03.595Z,49.10
2019-04-28T04:56:03.572Z,46.10
2019-04-28T04:57:03.544Z,45.80
2019-04-28T04:58:03.512Z,45.00
2019-04-28T04:59:03.483Z,42.80
2019-04-28T05:00:03.457Z,45.90
2019-04-28T05:01:03.435Z,43.30
2019-04-28T05:02:03.400Z,46.20
2019-04-28T05:03:03.377Z,40.50
2019-04-28T05:04:03.343Z,42.60
2019-04-28T05:05:03.316Z,42.70
2019-04-28T05:06:03.288Z,39.70
2019-04-28T05:07:03.259Z,36.80
2019-04-28T05:08:03.232Z,45.40
2019-04-28T05:09:03.206Z,40.90
2019-04-28T05:10:03.179Z,42.80
2019-04-28T05:11:03.147Z,44.50
2019-04-28T05:12:03.119Z,43.50
2019-04-28T05:13:03.092Z,39.00
2019-04-28T05:14:03.066Z,41.40
2019-04-28T05:15:03.035Z,38.70
2019-04-28T05:16:03.009Z,43.00
2019-04-28T05:17:02.985Z,40.10
2019-04-28T05:18:02.951Z,38.60
2019-04-28T05:19:02.923Z,43.00
2019-04-28T05:20:02.894Z,38.10
2019-04-28T05:21:02.867Z,45.20
2019-04-28T05:22:02.841Z,42.80
2019-04-28T05:23:02.811Z,39.50
2019-04-28T05:24:02.785Z,37.30
2019-04-28T05:25:02.757Z,42.40
2019-04-28T05:26:07.986Z,41.50
2019-04-28T05:27:02.697Z,42.50
2019-04-28T05:28:03.014Z,45.40
2019-04-28T05:29:02.643Z,38.10
2019-04-28T05:30:05.065Z,44.60
2019-04-28T05:31:02.587Z,42.00
2019-04-28T05:32:03.492Z,44.20
2019-04-28T05:33:02.532Z,46.10
2019-04-28T05:34:04.200Z,43.60
2019-04-28T05:35:02.475Z,43.50
2019-04-28T05:36:03.135Z,44.50
2019-04-28T05:37:02.427Z,45.30
2019-04-28T05:38:02.394Z,37.30
2019-04-28T05:39:02.362Z,40.40
2019-04-28T05:40:02.337Z,39.20
2019-04-28T05:41:02.684Z,39.20
2019-04-28T05:42:02.279Z,41.00
2019-04-28T05:43:02.252Z,36.60
2019-04-28T05:44:02.223Z,38.40
2019-04-28T05:45:02.198Z,36.80
2019-04-28T05:46:02.169Z,33.50
2019-04-28T05:47:02.141Z,31.70
2019-04-28T05:48:02.112Z,35.00
2019-04-28T05:49:02.092Z,33.10
2019-04-28T05:50:02.060Z,31.10
2019-04-28T05:51:02.028Z,33.10
2019-04-28T05:52:02.001Z,23.50
2019-04-28T05:53:01.972Z,26.10
2019-04-28T05:54:01.945Z,30.50
2019-04-28T05:55:01.917Z,23.60
2019-04-28T05:56:01.888Z,25.00
2019-04-28T05:57:02.386Z,26.90
2019-04-28T05:58:01.834Z,25.10
2019-04-28T05:59:01.804Z,24.10
2019-04-28T06:00:03.657Z,27.50
2019-04-28T06:01:01.750Z,22.90
2019-04-28T06:02:01.723Z,21.50
2019-04-28T06:03:01.694Z,28.80
2019-04-28T06:04:01.663Z,21.80
2019-04-28T06:05:01.646Z,20.30
2019-04-28T06:06:01.611Z,23.10
2019-04-28T06:07:01.581Z,22.20
2019-04-28T06:08:01.552Z,23.60
2019-04-28T06:09:01.524Z,20.30
2019-04-28T06:10:01.526Z,24.30
2019-04-28T06:11:01.467Z,26.50
2019-04-28T06:12:01.439Z,25.50
2019-04-28T06:13:01.411Z,25.30
2019-04-28T06:14:01.384Z,25.30
2019-04-28T06:15:01.355Z,26.60
2019-04-28T06:16:01.336Z,20.20
2019-04-28T06:17:03.963Z,21.00
2019-04-28T06:18:01.271Z,23.80
2019-04-28T06:19:01.242Z,22.70
2019-04-28T06:20:01.223Z,24.60
2019-04-28T06:21:01.186Z,22.80
2019-04-28T06:22:01.158Z,24.10
2019-04-28T06:23:01.129Z,25.10
2019-04-28T06:24:01.105Z,30.30
2019-04-28T06:25:01.074Z,28.20
2019-04-28T06:26:01.051Z,30.50
2019-04-28T06:27:01.015Z,28.50
2019-04-28T06:28:00.989Z,28.70
2019-04-28T06:29:00.962Z,26.30
2019-04-28T06:30:00.933Z,32.70
2019-04-28T06:31:00.904Z,27.40
2019-04-28T06:32:00.876Z,25.70
2019-04-28T06:33:07.474Z,23.80
2019-04-28T06:34:00.822Z,22.10
2019-04-28T06:35:00.792Z,24.20
2019-04-28T06:36:00.766Z,28.50
2019-04-28T06:37:00.736Z,24.80
2019-04-28T06:38:00.707Z,25.10
2019-04-28T06:39:00.680Z,24.10
2019-04-28T06:40:00.653Z,23.90
2019-04-28T06:41:00.625Z,26.90
2019-04-28T06:42:00.599Z,28.50
2019-04-28T06:43:00.569Z,25.00
2019-04-28T06:44:00.541Z,27.30
2019-04-28T06:45:00.514Z,24.80
2019-04-28T06:46:00.488Z,29.90
2019-04-28T06:47:00.457Z,27.80
2019-04-28T06:48:00.430Z,29.20
2019-04-28T06:49:00.402Z,33.10
2019-04-28T06:50:00.375Z,27.70
2019-04-28T06:51:00.348Z,27.20
2019-04-28T06:52:00.321Z,31.70
2019-04-28T06:53:02.812Z,29.00
2019-04-28T06:54:00.265Z,29.20
2019-04-28T06:55:00.239Z,28.30
2019-04-28T06:56:00.209Z,32.10
2019-04-28T06:57:00.183Z,32.20
2019-04-28T06:58:00.157Z,26.90
2019-04-28T06:59:00.130Z,24.20
2019-04-28T07:00:00.102Z,22.60
2019-04-28T07:01:00.074Z,24.60
2019-04-28T07:02:00.047Z,23.70
2019-04-28T07:03:00.029Z,22.10
2019-04-28T07:03:59.994Z,20.90
2019-04-28T07:05:01.894Z,22.20
2019-04-28T07:05:59.944Z,22.30
2019-04-28T07:06:59.910Z,19.80
2019-04-28T07:07:59.883Z,20.20
2019-04-28T07:08:59.857Z,16.80
2019-04-28T07:09:59.830Z,20.00
2019-04-28T07:10:59.801Z,24.80
2019-04-28T07:11:59.778Z,20.30
2019-04-28T07:12:59.747Z,18.20
2019-04-28T07:13:59.722Z,18.80
2019-04-28T07:14:59.693Z,20.80
2019-04-28T07:15:59.665Z,20.90
2019-04-28T07:16:59.640Z,21.50
2019-04-28T07:17:59.613Z,19.40
2019-04-28T07:18:59.587Z,26.10
2019-04-28T07:19:59.559Z,18.60
2019-04-28T07:20:59.533Z,22.70
2019-04-28T07:21:59.506Z,20.30
2019-04-28T07:22:59.482Z,19.10
2019-04-28T07:23:59.455Z,16.20
2019-04-28T07:24:59.429Z,19.50
2019-04-28T07:25:59.401Z,19.20
2019-04-28T07:26:59.372Z,17.10
2019-04-28T07:27:59.346Z,18.60
2019-04-28T07:28:59.322Z,22.30
2019-04-28T07:29:59.295Z,17.70
2019-04-28T07:30:59.268Z,16.00
2019-04-28T07:31:59.242Z,21.50
2019-04-28T07:32:59.225Z,16.10
2019-04-28T07:33:59.190Z,18.50
2019-04-28T07:34:59.164Z,16.10
2019-04-28T07:35:59.137Z,16.60
2019-04-28T07:36:59.111Z,13.50
2019-04-28T07:37:59.085Z,15.80
2019-04-28T07:38:59.058Z,14.20
2019-04-28T07:39:59.037Z,12.70
2019-04-28T07:40:59.006Z,12.80
2019-04-28T07:41:58.980Z,11.50
2019-04-28T07:42:58.953Z,10.30
2019-04-28T07:43:58.927Z,10.60
2019-04-28T07:44:58.902Z,9.00
2019-04-28T07:45:58.876Z,8.50
2019-04-28T07:46:58.849Z,9.40
2019-04-28T07:47:58.825Z,11.60
2019-04-28T07:48:58.797Z,7.90
2019-04-28T07:49:58.773Z,10.70
2019-04-28T07:50:58.747Z,8.50
2019-04-28T07:51:58.719Z,11.50
2019-04-28T07:52:58.693Z,9.40
2019-04-28T07:54:02.203Z,9.50
2019-04-28T07:54:58.641Z,10.80
2019-04-28T07:55:58.615Z,11.50
2019-04-28T07:56:58.589Z,7.30
2019-04-28T07:57:58.563Z,8.10
2019-04-28T07:58:58.536Z,10.70
2019-04-28T07:59:58.511Z,9.30
2019-04-28T08:00:58.487Z,11.50
2019-04-28T08:01:58.461Z,10.00
2019-04-28T08:02:58.436Z,8.40
2019-04-28T08:03:58.409Z,7.40
2019-04-28T08:04:58.383Z,9.60
2019-04-28T08:05:58.358Z,7.70
2019-04-28T08:06:58.332Z,7.00
2019-04-28T08:07:58.308Z,8.00
2019-04-28T08:08:58.283Z,7.10
2019-04-28T08:09:58.256Z,7.20
2019-04-28T08:10:58.229Z,5.70
2019-04-28T08:11:58.208Z,6.20
2019-04-28T08:12:58.182Z,7.10
2019-04-28T08:13:58.156Z,7.90
2019-04-28T08:14:58.126Z,8.50
2019-04-28T08:15:58.102Z,9.90
2019-04-28T08:16:58.083Z,8.70
2019-04-28T08:17:58.054Z,6.40
2019-04-28T08:18:58.026Z,6.60
2019-04-28T08:19:58.000Z,7.10
2019-04-28T08:20:57.977Z,9.30
2019-04-28T08:21:57.950Z,8.40
2019-04-28T08:22:57.925Z,10.50
2019-04-28T08:23:57.900Z,6.60
2019-04-28T08:24:57.874Z,9.70
2019-04-28T08:25:57.848Z,6.50
2019-04-28T08:26:57.827Z,7.20
2019-04-28T08:27:57.798Z,7.40
2019-04-28T08:28:57.770Z,9.10
2019-04-28T08:29:58.899Z,9.70
2019-04-28T08:30:57.719Z,9.90
2019-04-28T08:31:57.693Z,9.40
2019-04-28T08:32:57.668Z,7.40
2019-04-28T08:34:02.516Z,5.90
2019-04-28T08:34:57.617Z,8.70
2019-04-28T08:35:57.592Z,8.00
2019-04-28T08:36:57.567Z,7.70
2019-04-28T08:37:57.541Z,6.70
2019-04-28T08:38:57.517Z,8.30
2019-04-28T08:39:57.492Z,6.90
2019-04-28T08:40:57.466Z,6.70
2019-04-28T08:41:57.445Z,6.10
2019-04-28T08:42:57.419Z,7.50
2019-04-28T08:43:57.391Z,5.40
2019-04-28T08:44:57.366Z,8.70
2019-04-28T08:45:57.341Z,5.50
2019-04-28T08:46:57.316Z,8.50
2019-04-28T08:47:58.072Z,6.80
2019-04-28T08:48:57.266Z,7.30
2019-04-28T08:49:57.242Z,6.20
2019-04-28T08:50:57.218Z,5.30
2019-04-28T08:51:57.192Z,6.60
2019-04-28T08:52:57.168Z,5.90
2019-04-28T08:53:57.144Z,6.70
2019-04-28T08:54:57.118Z,6.70
2019-04-28T08:55:57.093Z,5.00
2019-04-28T08:56:57.070Z,5.30
2019-04-28T08:57:57.045Z,5.70
2019-04-28T08:58:57.020Z,6.80
2019-04-28T08:59:56.996Z,5.90
2019-04-28T09:00:56.971Z,5.90
2019-04-28T09:01:56.948Z,6.40
2019-04-28T09:02:56.921Z,3.90
2019-04-28T09:03:56.898Z,7.60
2019-04-28T09:04:56.875Z,4.90
2019-04-28T09:05:56.851Z,4.90
2019-04-28T09:06:56.824Z,5.30
2019-04-28T09:07:56.799Z,5.30
2019-04-28T09:08:56.775Z,6.70
2019-04-28T09:09:56.753Z,6.00
2019-04-28T09:10:56.726Z,5.70
2019-04-28T09:11:56.707Z,6.70
2019-04-28T09:12:56.677Z,7.30
2019-04-28T09:13:56.654Z,6.90
2019-04-28T09:14:56.629Z,5.00
2019-04-28T09:15:56.604Z,5.10
2019-04-28T09:16:56.580Z,6.80
2019-04-28T09:17:56.557Z,4.30
2019-04-28T09:18:56.531Z,6.20
2019-04-28T09:19:56.507Z,5.80
2019-04-28T09:20:56.486Z,6.00
2019-04-28T09:21:56.459Z,6.70
2019-04-28T09:22:56.435Z,4.10
2019-04-28T09:23:56.410Z,5.00
2019-04-28T09:24:56.387Z,5.40
2019-04-28T09:25:56.364Z,6.10
2019-04-28T09:26:56.337Z,4.10
2019-04-28T09:27:56.314Z,4.50
2019-04-28T09:28:56.292Z,5.40
2019-04-28T09:29:56.270Z,5.00
2019-04-28T09:30:56.245Z,6.10
2019-04-28T09:31:56.224Z,5.40
2019-04-28T09:32:56.196Z,6.70
2019-04-28T09:33:56.174Z,4.80
2019-04-28T09:34:56.151Z,7.30
2019-04-28T09:35:56.126Z,5.30
2019-04-28T09:36:56.104Z,4.90
2019-04-28T09:37:56.128Z,5.70
2019-04-28T09:38:56.060Z,5.70
2019-04-28T09:39:56.033Z,5.50
2019-04-28T09:40:56.012Z,5.70
2019-04-28T09:41:56.034Z,6.80
2019-04-28T09:42:55.963Z,5.70
2019-04-28T09:43:55.939Z,6.90
2019-04-28T09:44:55.915Z,4.70
2019-04-28T09:45:55.897Z,5.30
2019-04-28T09:46:55.870Z,4.30
2019-04-28T09:47:55.847Z,6.80
2019-04-28T09:48:55.826Z,4.40
2019-04-28T09:49:55.800Z,5.00
2019-04-28T09:50:55.779Z,4.40
2019-04-28T09:51:55.755Z,4.80
2019-04-28T09:52:55.730Z,4.70
2019-04-28T09:53:55.715Z,5.90
2019-04-28T09:54:55.683Z,5.50
2019-04-28T09:55:55.660Z,7.00
2019-04-28T09:56:56.795Z,5.50
2019-04-28T09:57:55.614Z,4.80
2019-04-28T09:58:55.592Z,4.60
2019-04-28T09:59:55.569Z,4.50
2019-04-28T10:00:55.546Z,4.60
2019-04-28T10:01:55.523Z,4.10
2019-04-28T10:02:55.501Z,3.50
2019-04-28T10:03:55.478Z,4.20
2019-04-28T10:04:55.454Z,3.20
2019-04-28T10:05:55.433Z,4.50
2019-04-28T10:06:55.409Z,5.20
2019-04-28T10:07:55.388Z,3.90
2019-04-28T10:08:55.365Z,3.70
2019-04-28T10:09:55.345Z,5.80
2019-04-28T10:10:55.332Z,4.70
2019-04-28T10:11:55.298Z,3.80
2019-04-28T10:12:55.275Z,4.30
2019-04-28T10:13:57.049Z,6.00
2019-04-28T10:14:55.230Z,4.10
2019-04-28T10:15:55.207Z,3.40
2019-04-28T10:16:55.184Z,4.20
2019-04-28T10:17:55.163Z,4.90
2019-04-28T10:18:55.141Z,4.60
2019-04-28T10:19:55.118Z,4.90
2019-04-28T10:20:55.096Z,6.40
2019-04-28T10:21:55.075Z,4.60
2019-04-28T10:22:55.051Z,4.70
2019-04-28T10:23:55.029Z,4.50
2019-04-28T10:24:55.008Z,3.60
2019-04-28T10:25:54.984Z,4.40
2019-04-28T10:26:54.960Z,3.90
2019-04-28T10:27:54.978Z,4.50
2019-04-28T10:28:54.916Z,5.50
2019-04-28T10:29:54.894Z,4.80
2019-04-28T10:30:54.871Z,5.20
2019-04-28T10:31:54.850Z,5.00
2019-04-28T10:32:54.829Z,5.40
2019-04-28T10:33:54.806Z,4.70
2019-04-28T10:34:55.407Z,5.10
2019-04-28T10:35:54.769Z,4.90
2019-04-28T10:36:54.740Z,4.90
2019-04-28T10:37:54.720Z,4.30
2019-04-28T10:38:54.696Z,5.20
2019-04-28T10:39:54.676Z,3.40
2019-04-28T10:40:54.652Z,5.60
2019-04-28T10:41:54.631Z,4.60
2019-04-28T10:42:54.611Z,4.00
2019-04-28T10:43:54.588Z,4.60
2019-04-28T10:44:54.568Z,4.80
2019-04-28T10:45:54.552Z,4.20
2019-04-28T10:46:54.526Z,3.90
2019-04-28T10:47:54.505Z,3.30
2019-04-28T10:48:54.484Z,6.60
2019-04-28T10:49:54.465Z,5.00
2019-04-28T10:50:54.449Z,4.10
2019-04-28T10:51:59.506Z,7.60
2019-04-28T10:52:54.402Z,5.20
2019-04-28T10:53:54.381Z,3.70
2019-04-28T10:54:54.364Z,5.90
2019-04-28T10:55:54.340Z,5.50
2019-04-28T10:56:54.320Z,3.70
2019-04-28T10:57:54.301Z,3.60
2019-04-28T10:58:54.281Z,5.00
2019-04-28T10:59:54.258Z,5.60
2019-04-28T11:00:54.236Z,4.70
2019-04-28T11:01:54.218Z,4.80
2019-04-28T11:02:54.194Z,4.80
2019-04-28T11:03:54.179Z,4.10
2019-04-28T11:04:54.154Z,4.20
2019-04-28T11:05:54.135Z,3.30
2019-04-28T11:06:54.113Z,5.80
2019-04-28T11:07:54.093Z,6.00
2019-04-28T11:08:54.072Z,4.80
2019-04-28T11:09:54.052Z,3.50
2019-04-28T11:10:54.031Z,4.60
2019-04-28T11:11:54.009Z,4.90
2019-04-28T11:12:53.990Z,6.30
2019-04-28T11:13:53.968Z,4.40
2019-04-28T11:14:53.949Z,4.40
2019-04-28T11:15:53.923Z,6.70
2019-04-28T11:16:53.901Z,4.20
2019-04-28T11:17:53.884Z,5.90
2019-04-28T11:18:53.856Z,5.30
2019-04-28T11:19:53.833Z,3.80
2019-04-28T11:20:53.815Z,7.60
2019-04-28T11:21:53.789Z,6.60
2019-04-28T11:22:53.765Z,6.40
2019-04-28T11:23:53.743Z,6.80
2019-04-28T11:24:53.722Z,5.80
2019-04-28T11:25:53.699Z,5.80
2019-04-28T11:26:53.675Z,8.10
2019-04-28T11:27:55.451Z,6.10
2019-04-28T11:28:53.631Z,4.50
2019-04-28T11:29:53.610Z,3.90
2019-04-28T11:30:53.585Z,5.50
2019-04-28T11:31:53.560Z,5.20
2019-04-28T11:32:53.537Z,4.10
2019-04-28T11:33:53.514Z,5.00
2019-04-28T11:34:53.493Z,6.20
2019-04-28T11:35:53.466Z,5.00
2019-04-28T11:36:53.444Z,5.70
2019-04-28T11:37:53.420Z,4.10
2019-04-28T11:38:53.396Z,5.00
2019-04-28T11:39:53.374Z,3.60
2019-04-28T11:40:53.351Z,5.40
2019-04-28T11:41:53.326Z,5.30
2019-04-28T11:42:53.303Z,6.20
2019-04-28T11:43:53.281Z,5.80
2019-04-28T11:44:53.257Z,3.60
2019-04-28T11:45:53.233Z,3.40
2019-04-28T11:46:53.211Z,4.40
2019-04-28T11:47:53.190Z,4.70
2019-04-28T11:48:53.162Z,5.10
2019-04-28T11:49:53.141Z,4.80
2019-04-28T11:50:53.120Z,3.90
2019-04-28T11:51:53.094Z,6.10
2019-04-28T11:52:53.072Z,4.60
2019-04-28T11:53:53.048Z,5.70
2019-04-28T11:54:53.026Z,5.00
2019-04-28T11:55:53.004Z,5.40
2019-04-28T11:56:52.981Z,4.10
2019-04-28T11:57:52.962Z,6.10
2019-04-28T11:58:52.934Z,5.30
2019-04-28T11:59:54.185Z,4.50
2019-04-28T12:00:52.890Z,5.30
2019-04-28T12:01:52.870Z,5.90
2019-04-28T12:02:52.847Z,5.40
2019-04-28T12:03:52.824Z,6.00
2019-04-28T12:04:52.807Z,5.30
2019-04-28T12:05:52.782Z,5.00
2019-04-28T12:06:52.760Z,4.80
2019-04-28T12:07:52.737Z,3.80
2019-04-28T12:08:52.716Z,3.80
2019-04-28T12:10:03.908Z,3.90
2019-04-28T12:10:52.671Z,4.80
2019-04-28T12:11:52.652Z,3.50
2019-04-28T12:12:52.627Z,4.10
2019-04-28T12:13:52.605Z,4.70
2019-04-28T12:14:52.596Z,4.00
2019-04-28T12:15:52.560Z,4.80
2019-04-28T12:16:52.539Z,3.00
2019-04-28T12:17:52.515Z,5.10
2019-04-28T12:18:52.493Z,6.50
2019-04-28T12:19:52.470Z,6.20
2019-04-28T12:20:52.448Z,5.30
2019-04-28T12:21:52.428Z,4.30
2019-04-28T12:22:52.403Z,3.70
2019-04-28T12:23:52.379Z,5.00
2019-04-28T12:24:52.356Z,5.30
2019-04-28T12:25:52.335Z,5.20
2019-04-28T12:26:52.326Z,4.70
2019-04-28T12:27:52.289Z,4.30
2019-04-28T12:28:52.266Z,6.30
2019-04-28T12:29:52.244Z,5.20
2019-04-28T12:30:52.221Z,3.80
2019-04-28T12:31:52.198Z,3.10
2019-04-28T12:32:52.176Z,5.80
2019-04-28T12:33:52.153Z,4.30
2019-04-28T12:34:52.130Z,4.20
2019-04-28T12:35:52.107Z,4.80
2019-04-28T12:36:52.083Z,5.40
2019-04-28T12:37:52.065Z,3.30
2019-04-28T12:38:52.039Z,3.30
2019-04-28T12:39:52.014Z,4.00
2019-04-28T12:40:51.992Z,3.40
2019-04-28T12:41:51.971Z,4.10
2019-04-28T12:42:51.947Z,4.30
2019-04-28T12:43:51.924Z,4.00
2019-04-28T12:44:51.900Z,4.50
2019-04-28T12:45:51.878Z,4.30
2019-04-28T12:46:51.856Z,3.80
2019-04-28T12:47:51.832Z,2.80
2019-04-28T12:48:51.809Z,3.10
2019-04-28T12:49:51.786Z,3.80
2019-04-28T12:50:51.764Z,4.00
2019-04-28T12:51:51.739Z,4.80
2019-04-28T12:52:51.718Z,3.30
2019-04-28T12:53:51.696Z,3.40
2019-04-28T12:54:51.673Z,3.50
2019-04-28T12:55:51.651Z,4.20
2019-04-28T12:56:51.630Z,3.20
2019-04-28T12:57:51.608Z,4.10
2019-04-28T12:58:51.584Z,4.30
2019-04-28T12:59:53.158Z,3.20
2019-04-28T13:00:51.541Z,2.90
2019-04-28T13:01:51.518Z,4.20
2019-04-28T13:02:51.495Z,4.60